Weather at Frank Pais International Airport

Public forecast

Using degrees Celsius for public forecast. Weather courtesy of forecast.io.

Current aviation weather report (METAR) for Frank Pais International Airport

Retrieved 2021/10/19 13:50 UTC (26 minutes ago):

MUHG 191350Z 06011KT 9000 FEW022 28/23 Q1016

Aviation forecast (TAF) for Frank Pais International Airport

Retrieved 2021/10/19 12:03 UTC (2 hours ago):

TAF MUHG 191100Z 1912/2012 VRB03KT 9000 FEW025 BECMG 1915/1917 05012KT BECMG 2000/2002 VRB03KT